createdAt,value
2018-12-19T00:00:20.687Z,26.53
2018-12-19T00:02:48.168Z,33.27
2018-12-19T00:05:15.652Z,28.57
2018-12-19T00:07:43.686Z,27.73
2018-12-19T00:10:12.010Z,28.13
2018-12-19T00:12:39.776Z,26.47
2018-12-19T00:15:07.368Z,27.67
2018-12-19T00:17:35.256Z,30.97
2018-12-19T00:20:03.348Z,28.87
2018-12-19T00:22:30.820Z,28.60
2018-12-19T00:24:58.409Z,28.93
2018-12-19T00:27:26.608Z,27.00
2018-12-19T00:29:54.156Z,28.60
2018-12-19T00:32:21.622Z,30.33
2018-12-19T00:34:49.134Z,24.10
2018-12-19T00:37:16.618Z,26.23
2018-12-19T00:39:44.084Z,29.43
2018-12-19T00:42:11.562Z,26.47
2018-12-19T00:44:39.039Z,23.17
2018-12-19T00:47:06.519Z,24.90
2018-12-19T00:49:33.993Z,24.70
2018-12-19T00:52:01.512Z,25.90
2018-12-19T00:54:28.971Z,21.57
2018-12-19T00:56:56.698Z,23.77
2018-12-19T00:59:24.184Z,30.17
2018-12-19T01:01:51.686Z,26.00
2018-12-19T01:04:19.159Z,25.83
2018-12-19T01:06:46.646Z,28.13
2018-12-19T01:09:16.024Z,26.57
2018-12-19T01:11:43.671Z,24.30
2018-12-19T01:14:11.135Z,21.90
2018-12-19T01:16:38.614Z,24.13
2018-12-19T01:19:06.153Z,27.97
2018-12-19T01:21:33.635Z,21.70
2018-12-19T01:24:01.123Z,23.73
2018-12-19T01:26:28.610Z,25.67
2018-12-19T01:28:56.126Z,24.20
2018-12-19T01:31:23.599Z,20.80
2018-12-19T01:33:51.090Z,22.57
2018-12-19T01:36:18.598Z,22.33
2018-12-19T01:38:46.095Z,25.93
2018-12-19T01:41:13.562Z,20.63
2018-12-19T01:43:41.042Z,25.93
2018-12-19T01:46:08.518Z,21.40
2018-12-19T01:48:36.004Z,25.47
2018-12-19T01:51:03.534Z,21.17
2018-12-19T01:53:31.038Z,24.93
2018-12-19T01:55:58.864Z,22.63
2018-12-19T01:58:26.356Z,25.73
2018-12-19T02:00:53.883Z,25.03
2018-12-19T02:03:21.473Z,24.20
2018-12-19T02:05:49.044Z,21.63
2018-12-19T02:08:16.546Z,31.10
2018-12-19T02:10:44.033Z,22.67
2018-12-19T02:13:11.530Z,26.40
2018-12-19T02:15:39.006Z,25.97
2018-12-19T02:18:07.314Z,23.33
2018-12-19T02:20:34.772Z,27.30
2018-12-19T02:23:02.282Z,24.47
2018-12-19T02:25:29.760Z,24.83
2018-12-19T02:27:57.242Z,24.33
2018-12-19T02:30:24.732Z,23.57
2018-12-19T02:32:52.458Z,22.60
2018-12-19T02:35:20.109Z,21.13
2018-12-19T02:37:47.580Z,22.90
2018-12-19T02:40:15.073Z,21.73
2018-12-19T02:42:42.551Z,25.90
2018-12-19T02:45:10.132Z,19.03
2018-12-19T02:47:39.618Z,22.60
2018-12-19T02:50:07.104Z,23.17
2018-12-19T02:52:34.579Z,24.67
2018-12-19T02:55:02.796Z,24.03
2018-12-19T02:57:30.281Z,21.90
2018-12-19T02:59:58.756Z,21.47
2018-12-19T03:02:26.229Z,24.70
2018-12-19T03:04:53.724Z,21.03
2018-12-19T03:07:21.197Z,20.67
2018-12-19T03:09:48.688Z,24.23
2018-12-19T03:12:17.737Z,19.13
2018-12-19T03:14:45.224Z,23.63
2018-12-19T03:17:12.711Z,18.07
2018-12-19T03:19:41.114Z,15.47
2018-12-19T03:22:08.595Z,17.53
2018-12-19T03:24:37.078Z,21.27
2018-12-19T03:27:04.548Z,21.53
2018-12-19T03:29:32.044Z,22.80
2018-12-19T03:31:59.542Z,18.50
2018-12-19T03:34:27.004Z,17.00
2018-12-19T03:36:54.496Z,18.13
2018-12-19T03:39:21.982Z,18.73
2018-12-19T03:41:49.587Z,19.00
2018-12-19T03:44:17.081Z,15.97
2018-12-19T03:46:44.579Z,19.27
2018-12-19T03:49:12.770Z,19.83
2018-12-19T03:51:41.749Z,16.80
2018-12-19T03:54:09.225Z,16.80
2018-12-19T03:56:36.697Z,19.77
2018-12-19T03:59:04.260Z,16.93
2018-12-19T04:01:31.817Z,17.83
2018-12-19T04:03:59.291Z,20.33
2018-12-19T04:06:27.790Z,22.20
2018-12-19T04:08:55.273Z,16.87
2018-12-19T04:11:22.757Z,13.93
2018-12-19T04:13:50.240Z,16.63
2018-12-19T04:16:17.754Z,16.97
2018-12-19T04:18:45.229Z,15.07
2018-12-19T04:21:12.724Z,15.63
2018-12-19T04:23:40.172Z,14.63
2018-12-19T04:26:07.656Z,15.47
2018-12-19T04:28:35.137Z,14.67
2018-12-19T04:31:02.632Z,19.30
2018-12-19T04:33:30.100Z,12.50
2018-12-19T04:35:57.614Z,12.93
2018-12-19T04:38:26.048Z,14.57
2018-12-19T04:40:53.709Z,14.93
2018-12-19T04:43:21.237Z,13.03
2018-12-19T04:45:48.689Z,14.27
2018-12-19T04:48:17.063Z,12.03
2018-12-19T04:50:44.549Z,10.23
2018-12-19T04:53:12.031Z,14.23
2018-12-19T04:55:40.477Z,11.77
2018-12-19T04:58:08.057Z,13.77
2018-12-19T05:00:36.321Z,10.43
2018-12-19T05:03:03.869Z,12.80
2018-12-19T05:05:31.357Z,9.20
2018-12-19T05:07:58.841Z,8.60
2018-12-19T05:10:26.408Z,11.37
2018-12-19T05:12:53.983Z,13.10
2018-12-19T05:15:21.460Z,8.70
2018-12-19T05:17:48.974Z,15.90
2018-12-19T05:20:16.465Z,11.93
2018-12-19T05:22:43.916Z,8.73
2018-12-19T05:25:13.828Z,13.63
2018-12-19T05:27:41.292Z,12.53
2018-12-19T05:30:09.521Z,10.00
2018-12-19T05:32:37.106Z,12.23
2018-12-19T05:35:06.120Z,11.27
2018-12-19T05:37:33.691Z,11.87
2018-12-19T05:40:01.165Z,11.13
2018-12-19T05:42:28.657Z,11.83
2018-12-19T05:44:56.140Z,11.87
2018-12-19T05:47:23.692Z,12.53
2018-12-19T05:49:51.540Z,13.17
2018-12-19T05:52:20.994Z,10.33
2018-12-19T05:54:48.921Z,11.27
2018-12-19T05:57:17.965Z,8.80
2018-12-19T05:59:45.440Z,9.00
2018-12-19T06:02:12.911Z,8.87
2018-12-19T06:04:40.441Z,10.80
2018-12-19T06:07:07.920Z,11.73
2018-12-19T06:09:35.403Z,12.47
2018-12-19T06:12:02.901Z,13.57
2018-12-19T06:14:30.407Z,9.27
2018-12-19T06:16:57.949Z,11.93
2018-12-19T06:19:25.514Z,12.53
2018-12-19T06:21:53.117Z,15.17
2018-12-19T06:24:21.471Z,13.53
2018-12-19T06:26:49.132Z,10.93
2018-12-19T06:29:16.618Z,13.53
2018-12-19T06:31:44.092Z,12.13
2018-12-19T06:34:11.577Z,10.27
2018-12-19T06:36:39.061Z,16.30
2018-12-19T06:39:08.123Z,11.47
2018-12-19T06:41:35.669Z,15.67
2018-12-19T06:44:04.360Z,10.87
2018-12-19T06:46:31.883Z,12.57
2018-12-19T06:48:59.354Z,10.47
2018-12-19T06:51:28.507Z,14.07
2018-12-19T06:53:55.977Z,11.67
2018-12-19T06:56:23.500Z,12.87
2018-12-19T06:58:50.993Z,11.80
2018-12-19T07:01:18.469Z,13.33
2018-12-19T07:03:45.977Z,15.53
2018-12-19T07:06:13.495Z,37.17
2018-12-19T07:08:41.572Z,11.80
2018-12-19T07:11:09.177Z,12.20
2018-12-19T07:13:36.681Z,13.13
2018-12-19T07:16:04.169Z,16.87
2018-12-19T07:18:31.735Z,12.70
2018-12-19T07:20:59.789Z,15.10
2018-12-19T07:23:28.233Z,13.10
2018-12-19T07:25:55.725Z,11.10
2018-12-19T07:28:23.198Z,10.47
2018-12-19T07:30:50.703Z,12.93
2018-12-19T07:33:18.205Z,16.17
2018-12-19T07:35:45.688Z,10.80
2018-12-19T07:38:13.906Z,24.30
2018-12-19T07:40:45.577Z,12.10
2018-12-19T07:43:10.874Z,10.73
2018-12-19T07:45:38.359Z,19.27
2018-12-19T07:48:05.853Z,12.30
2018-12-19T07:50:33.360Z,10.67
2018-12-19T07:53:01.002Z,9.27
2018-12-19T07:55:30.445Z,20.47
2018-12-19T07:57:57.922Z,19.03
2018-12-19T08:00:27.599Z,8.57
2018-12-19T08:02:54.917Z,8.03
2018-12-19T08:05:26.066Z,10.37
2018-12-19T08:07:51.874Z,8.23
2018-12-19T08:10:19.382Z,10.23
2018-12-19T08:12:46.841Z,13.23
2018-12-19T08:15:14.322Z,7.70
2018-12-19T08:17:41.858Z,10.93
2018-12-19T08:20:10.257Z,7.67
2018-12-19T08:22:37.736Z,9.50
2018-12-19T08:25:05.338Z,6.10
2018-12-19T08:27:32.835Z,9.03
2018-12-19T08:30:00.331Z,6.20
2018-12-19T08:32:27.840Z,7.20
2018-12-19T08:34:55.325Z,10.00
2018-12-19T08:37:22.816Z,9.13
2018-12-19T08:39:50.287Z,9.43
2018-12-19T08:42:17.786Z,9.10
2018-12-19T08:44:45.257Z,7.20
2018-12-19T08:47:12.767Z,16.63
2018-12-19T08:49:40.241Z,9.57
2018-12-19T08:52:07.716Z,9.10
2018-12-19T08:54:35.427Z,9.63
2018-12-19T08:57:03.048Z,10.70
2018-12-19T08:59:30.545Z,8.73
2018-12-19T09:01:58.025Z,7.67
2018-12-19T09:04:25.895Z,8.50
2018-12-19T09:06:53.693Z,7.77
2018-12-19T09:09:21.164Z,7.77
2018-12-19T09:11:50.038Z,6.90
2018-12-19T09:14:17.944Z,9.57
2018-12-19T09:16:45.458Z,7.97
2018-12-19T09:19:12.985Z,7.27
2018-12-19T09:21:40.473Z,8.87
2018-12-19T09:24:07.937Z,8.57
2018-12-19T09:26:35.413Z,7.10
2018-12-19T09:29:02.881Z,7.57
2018-12-19T09:31:30.559Z,9.03
2018-12-19T09:33:58.039Z,8.43
2018-12-19T09:36:25.541Z,8.67
2018-12-19T09:38:53.041Z,9.47
2018-12-19T09:41:20.553Z,8.63
2018-12-19T09:43:48.041Z,9.00
2018-12-19T09:46:15.497Z,9.20
2018-12-19T09:48:42.985Z,10.73
2018-12-19T09:51:10.867Z,9.03
2018-12-19T09:53:38.358Z,10.50
2018-12-19T09:56:05.897Z,7.90
2018-12-19T09:58:33.397Z,7.30
2018-12-19T10:01:01.931Z,9.17
2018-12-19T10:03:29.812Z,7.27
2018-12-19T10:05:57.295Z,9.43
2018-12-19T10:08:24.833Z,8.40
2018-12-19T10:10:52.383Z,7.43
2018-12-19T10:13:19.879Z,8.33
2018-12-19T10:15:47.424Z,10.43
2018-12-19T10:18:14.923Z,7.77
2018-12-19T10:20:42.445Z,8.33
2018-12-19T10:23:09.933Z,9.93
2018-12-19T10:25:37.405Z,7.10
2018-12-19T10:28:04.882Z,8.97
2018-12-19T10:30:34.334Z,11.40
2018-12-19T10:33:01.832Z,8.77
2018-12-19T10:35:29.319Z,8.60
2018-12-19T10:37:56.814Z,8.17
2018-12-19T10:40:24.286Z,8.00
2018-12-19T10:42:51.788Z,8.03
2018-12-19T10:45:19.272Z,9.10
2018-12-19T10:47:46.763Z,9.13
2018-12-19T10:50:15.182Z,9.90
2018-12-19T10:52:42.686Z,11.37
2018-12-19T10:55:10.172Z,7.50
2018-12-19T10:57:37.656Z,7.77
2018-12-19T11:00:06.771Z,7.27
2018-12-19T11:02:34.272Z,9.20
2018-12-19T11:05:02.755Z,9.03
2018-12-19T11:07:30.249Z,6.90
2018-12-19T11:09:57.729Z,10.37
2018-12-19T11:12:25.222Z,6.40
2018-12-19T11:14:52.729Z,7.93
2018-12-19T11:17:20.198Z,7.37
2018-12-19T11:19:47.945Z,6.97
2018-12-19T11:22:15.422Z,6.20
2018-12-19T11:24:42.945Z,7.87
2018-12-19T11:27:10.485Z,8.07
2018-12-19T11:29:38.005Z,7.03
2018-12-19T11:32:05.501Z,6.77
2018-12-19T11:34:32.991Z,11.87
2018-12-19T11:37:00.643Z,8.60
2018-12-19T11:39:28.138Z,7.17
2018-12-19T11:41:55.613Z,7.43
2018-12-19T11:44:23.100Z,10.20
2018-12-19T11:46:50.567Z,10.23
2018-12-19T11:49:18.053Z,9.43
2018-12-19T11:51:45.540Z,9.30
2018-12-19T11:54:13.071Z,7.20
2018-12-19T11:56:40.633Z,6.73
2018-12-19T11:59:08.116Z,8.17
2018-12-19T12:01:41.144Z,9.43
2018-12-19T12:04:05.961Z,8.13
2018-12-19T12:06:33.519Z,7.60
2018-12-19T12:09:01.196Z,10.17
2018-12-19T12:11:28.677Z,7.53
2018-12-19T12:13:56.138Z,9.83
2018-12-19T12:16:23.636Z,8.17
2018-12-19T12:18:51.124Z,9.30
2018-12-19T12:21:18.607Z,7.00
2018-12-19T12:23:47.401Z,8.33
2018-12-19T12:26:15.204Z,11.07
2018-12-19T12:28:42.671Z,6.70
2018-12-19T12:31:10.163Z,7.47
2018-12-19T12:33:38.326Z,9.13
2018-12-19T12:36:06.047Z,8.37
2018-12-19T12:38:34.239Z,8.73
2018-12-19T12:41:01.886Z,9.37
2018-12-19T12:43:29.354Z,8.23
2018-12-19T12:45:56.850Z,9.10
2018-12-19T12:48:24.371Z,10.60
2018-12-19T12:50:51.869Z,8.03
2018-12-19T12:53:19.347Z,9.83
2018-12-19T12:55:46.842Z,8.47
2018-12-19T12:58:14.459Z,8.37
2018-12-19T13:00:41.945Z,8.77
2018-12-19T13:03:09.437Z,7.73
2018-12-19T13:05:37.014Z,8.33
2018-12-19T13:08:04.484Z,10.53
2018-12-19T13:10:36.284Z,8.63
2018-12-19T13:13:01.454Z,9.23
2018-12-19T13:15:45.490Z,9.43
2018-12-19T13:18:14.599Z,8.87
2018-12-19T13:20:42.404Z,9.83
2018-12-19T13:23:09.969Z,8.73
2018-12-19T13:25:37.532Z,11.17
2018-12-19T13:28:05.046Z,8.70
2018-12-19T13:30:32.527Z,10.67
2018-12-19T13:33:00.018Z,10.03
2018-12-19T13:35:27.489Z,11.17
2018-12-19T13:37:54.986Z,10.83
2018-12-19T13:40:22.536Z,12.23
2018-12-19T13:42:49.996Z,14.10
2018-12-19T13:45:17.465Z,10.90
2018-12-19T13:47:44.954Z,11.17
2018-12-19T13:50:12.432Z,12.23
2018-12-19T13:52:39.943Z,12.70
2018-12-19T13:55:07.473Z,12.30
2018-12-19T13:57:34.958Z,12.97
2018-12-19T14:00:02.496Z,13.47
2018-12-19T14:02:29.985Z,10.50
2018-12-19T14:04:57.460Z,11.13
2018-12-19T14:07:25.058Z,13.07
2018-12-19T14:09:52.959Z,10.97
2018-12-19T14:12:20.766Z,13.57
2018-12-19T14:14:48.224Z,12.17
2018-12-19T14:17:15.707Z,13.13
2018-12-19T14:19:43.246Z,10.77
2018-12-19T14:22:10.735Z,12.40
2018-12-19T14:24:38.243Z,11.93
2018-12-19T14:27:05.869Z,11.37
2018-12-19T14:29:33.350Z,16.50
2018-12-19T14:32:00.818Z,12.13
2018-12-19T14:34:28.295Z,11.60
2018-12-19T14:36:55.771Z,14.27
2018-12-19T14:39:23.258Z,13.67
2018-12-19T14:41:50.729Z,13.33
2018-12-19T14:44:18.195Z,14.00
2018-12-19T14:46:45.665Z,14.77
2018-12-19T14:49:14.056Z,14.47
2018-12-19T14:51:41.985Z,11.97
2018-12-19T14:54:09.556Z,13.57
2018-12-19T14:56:37.061Z,15.40
2018-12-19T14:59:04.724Z,12.33
2018-12-19T15:01:32.195Z,16.17
2018-12-19T15:03:59.682Z,13.40
2018-12-19T15:06:27.381Z,12.57
2018-12-19T15:08:54.871Z,13.20
2018-12-19T15:11:22.340Z,13.37
2018-12-19T15:13:49.884Z,13.37
2018-12-19T15:16:19.373Z,13.17
2018-12-19T15:18:46.845Z,13.17
2018-12-19T15:21:14.350Z,17.27
2018-12-19T15:23:41.849Z,14.27
2018-12-19T15:26:09.459Z,12.73
2018-12-19T15:28:37.027Z,14.37
2018-12-19T15:31:04.581Z,18.00
2018-12-19T15:33:32.067Z,15.83
2018-12-19T15:36:00.459Z,16.20
2018-12-19T15:38:27.945Z,16.57
2018-12-19T15:40:55.437Z,17.00
2018-12-19T15:43:22.929Z,15.70
2018-12-19T15:45:50.407Z,15.80
2018-12-19T15:48:17.903Z,16.47
2018-12-19T15:50:45.391Z,15.70
2018-12-19T15:53:12.869Z,15.60
2018-12-19T15:55:40.360Z,17.37
2018-12-19T15:58:08.913Z,13.00
2018-12-19T16:00:36.401Z,19.27
2018-12-19T16:03:04.703Z,15.13
2018-12-19T16:05:32.199Z,15.47
2018-12-19T16:07:59.672Z,14.90
2018-12-19T16:10:27.161Z,17.30
2018-12-19T16:12:54.662Z,16.50
2018-12-19T16:15:22.146Z,15.23
2018-12-19T16:17:49.795Z,14.63
2018-12-19T16:20:17.289Z,13.40
2018-12-19T16:22:44.791Z,13.53
2018-12-19T16:25:12.284Z,13.93
2018-12-19T16:27:39.778Z,16.17
2018-12-19T16:30:08.420Z,16.73
2018-12-19T16:32:35.927Z,15.87
2018-12-19T16:35:03.642Z,15.07
2018-12-19T16:37:31.134Z,14.50
2018-12-19T16:39:58.635Z,16.60
2018-12-19T16:42:26.210Z,13.97
2018-12-19T16:44:53.785Z,16.77
2018-12-19T16:47:22.350Z,14.77
2018-12-19T16:49:49.846Z,16.20
2018-12-19T16:52:17.323Z,16.30
2018-12-19T16:54:44.854Z,16.70
2018-12-19T16:57:12.334Z,16.13
2018-12-19T16:59:39.842Z,16.23
2018-12-19T17:02:07.316Z,18.47
2018-12-19T17:04:34.837Z,17.43
2018-12-19T17:07:02.318Z,15.03
2018-12-19T17:09:29.822Z,19.30
2018-12-19T17:11:57.307Z,15.93
2018-12-19T17:14:24.847Z,12.80
2018-12-19T17:16:52.321Z,15.47
2018-12-19T17:19:19.808Z,15.27
2018-12-19T17:21:47.298Z,16.10
2018-12-19T17:24:14.810Z,14.67
2018-12-19T17:26:42.269Z,16.13
2018-12-19T17:29:09.777Z,15.83
2018-12-19T17:31:37.265Z,14.53
2018-12-19T17:34:04.751Z,18.70
2018-12-19T17:36:32.287Z,17.77
2018-12-19T17:38:59.822Z,15.73
2018-12-19T17:41:27.293Z,13.77
2018-12-19T17:43:54.776Z,14.23
2018-12-19T17:46:22.282Z,16.60
2018-12-19T17:48:49.764Z,16.70
2018-12-19T17:51:17.238Z,16.97
2018-12-19T17:53:44.742Z,18.43
2018-12-19T17:56:12.247Z,18.23
2018-12-19T17:58:39.721Z,14.53
2018-12-19T18:01:07.224Z,14.73
2018-12-19T18:03:34.715Z,17.23
2018-12-19T18:06:02.248Z,15.70
2018-12-19T18:08:29.732Z,20.13
2018-12-19T18:10:57.294Z,17.90
2018-12-19T18:13:24.814Z,16.90
2018-12-19T18:15:52.293Z,16.00
2018-12-19T18:18:19.812Z,15.17
2018-12-19T18:20:47.312Z,16.90
2018-12-19T18:23:14.785Z,17.57
2018-12-19T18:25:42.594Z,16.47
2018-12-19T18:28:10.599Z,16.43
2018-12-19T18:30:38.217Z,17.87
2018-12-19T18:33:06.713Z,15.30
2018-12-19T18:35:34.249Z,14.57
2018-12-19T18:38:01.992Z,16.80
2018-12-19T18:40:30.653Z,17.73
2018-12-19T18:42:58.814Z,15.30
2018-12-19T18:45:26.336Z,15.63
2018-12-19T18:47:53.837Z,18.23
2018-12-19T18:50:21.307Z,16.87
2018-12-19T18:52:48.843Z,16.13
2018-12-19T18:55:16.339Z,15.40
2018-12-19T18:57:43.842Z,18.70
2018-12-19T19:00:11.471Z,19.13
2018-12-19T19:02:39.062Z,19.70
2018-12-19T19:05:06.670Z,16.93
2018-12-19T19:07:34.240Z,18.40
2018-12-19T19:10:01.843Z,17.43
2018-12-19T19:12:29.533Z,20.37
2018-12-19T19:14:57.057Z,21.60
2018-12-19T19:17:24.561Z,19.03
2018-12-19T19:19:52.128Z,16.80
2018-12-19T19:22:19.728Z,17.13
2018-12-19T19:24:47.293Z,18.60
2018-12-19T19:27:14.847Z,15.53
2018-12-19T19:29:42.353Z,17.77
2018-12-19T19:32:09.864Z,17.67
2018-12-19T19:34:38.242Z,17.13
2018-12-19T19:37:06.116Z,18.93
2018-12-19T19:39:33.676Z,19.53
2018-12-19T19:42:01.269Z,20.03
2018-12-19T19:44:28.848Z,19.60
2018-12-19T19:46:56.414Z,24.77
2018-12-19T19:49:23.947Z,17.93
2018-12-19T19:51:51.468Z,16.77
2018-12-19T19:54:18.970Z,20.10
2018-12-19T19:56:46.492Z,16.90
2018-12-19T19:59:14.021Z,19.37
2018-12-19T20:01:41.543Z,20.53
2018-12-19T20:04:09.103Z,16.73
2018-12-19T20:06:36.925Z,18.40
2018-12-19T20:09:07.518Z,20.90
2018-12-19T20:11:35.027Z,17.70
2018-12-19T20:14:02.532Z,18.77
2018-12-19T20:16:30.050Z,21.17
2018-12-19T20:18:57.596Z,17.23
2018-12-19T20:21:25.191Z,19.17
2018-12-19T20:23:52.751Z,17.30
2018-12-19T20:26:21.410Z,20.07
2018-12-19T20:28:48.985Z,17.87
2018-12-19T20:31:16.718Z,21.23
2018-12-19T20:33:44.315Z,19.10
2018-12-19T20:36:11.860Z,16.73
2018-12-19T20:38:39.488Z,18.03
2018-12-19T20:41:07.043Z,17.33
2018-12-19T20:43:39.956Z,17.83
2018-12-19T20:46:05.389Z,17.47
2018-12-19T20:48:32.964Z,16.40
2018-12-19T20:51:00.486Z,20.03
2018-12-19T20:53:27.992Z,16.80
2018-12-19T20:55:56.322Z,19.27
2018-12-19T20:58:23.915Z,18.03
2018-12-19T21:00:51.552Z,16.50
2018-12-19T21:03:19.066Z,19.47
2018-12-19T21:05:47.247Z,21.03
2018-12-19T21:08:14.769Z,19.10
2018-12-19T21:10:42.266Z,20.43
2018-12-19T21:13:09.768Z,19.17
2018-12-19T21:15:37.317Z,17.40
2018-12-19T21:18:10.559Z,20.90
2018-12-19T21:20:38.411Z,19.70
2018-12-19T21:23:06.367Z,21.07
2018-12-19T21:25:33.931Z,20.83
2018-12-19T21:28:01.425Z,18.07
2018-12-19T21:30:29.106Z,20.70
2018-12-19T21:32:56.591Z,19.47
2018-12-19T21:35:24.083Z,20.87
2018-12-19T21:37:51.827Z,21.93
2018-12-19T21:40:19.471Z,21.10
2018-12-19T21:42:47.078Z,17.47
2018-12-19T21:45:14.699Z,19.67
2018-12-19T21:47:42.353Z,20.33
2018-12-19T21:50:09.922Z,20.37
2018-12-19T21:52:37.635Z,21.93
2018-12-19T21:55:05.245Z,21.13
2018-12-19T21:57:33.077Z,20.77
2018-12-19T22:00:00.565Z,20.33
2018-12-19T22:02:28.211Z,24.47
2018-12-19T22:04:55.769Z,23.17
2018-12-19T22:07:23.541Z,20.83
2018-12-19T22:09:51.124Z,22.87
2018-12-19T22:12:18.685Z,22.37
2018-12-19T22:14:46.265Z,24.23
2018-12-19T22:20:21.770Z,24.20
2018-12-19T22:22:49.399Z,23.67
2018-12-19T22:25:16.944Z,22.10
2018-12-19T22:27:44.482Z,20.33
2018-12-19T22:30:12.030Z,26.17
2018-12-19T22:32:39.597Z,21.67
2018-12-19T22:35:07.064Z,28.97
2018-12-19T22:37:34.812Z,23.13
2018-12-19T22:40:04.120Z,23.67
2018-12-19T22:42:32.529Z,22.37
2018-12-19T22:45:00.010Z,24.43
2018-12-19T22:47:27.526Z,21.53
2018-12-19T22:50:05.594Z,25.03
2018-12-19T22:52:39.485Z,21.97
2018-12-19T22:55:07.598Z,23.17
2018-12-19T22:57:35.184Z,21.23
2018-12-19T23:00:04.764Z,22.60
2018-12-19T23:02:38.046Z,24.63
2018-12-19T23:05:06.514Z,24.53
2018-12-19T23:07:34.056Z,23.93
2018-12-19T23:10:01.650Z,22.27
2018-12-19T23:12:29.255Z,21.23
2018-12-19T23:14:57.236Z,22.00
2018-12-19T23:17:30.449Z,21.60
2018-12-19T23:19:58.066Z,23.50
2018-12-19T23:22:25.690Z,23.53
2018-12-19T23:24:53.243Z,21.97
2018-12-19T23:27:22.323Z,22.33
2018-12-19T23:29:49.918Z,19.60
2018-12-19T23:32:19.366Z,24.10
2018-12-19T23:34:46.858Z,24.60
2018-12-19T23:37:14.329Z,17.37
2018-12-19T23:39:41.868Z,26.90
2018-12-19T23:42:09.434Z,22.23
2018-12-19T23:44:37.004Z,20.13
2018-12-19T23:47:04.576Z,25.07
2018-12-19T23:49:32.297Z,22.90
2018-12-19T23:51:59.855Z,22.77
2018-12-19T23:54:29.171Z,23.03
2018-12-19T23:56:56.895Z,24.07
2018-12-19T23:59:24.442Z,21.40
